ADDS METAR Data INFO
IDs: Format: Raw Decoded Include TAF

Data at: 0457 UTC 21 Feb 2018

KTZR 201447Z 20016G22KT 10SM SKC 18/14 A3017
KTZR 201347Z 20014G20KT 10SM BKN110 17/13 A3016
KTZR 201247Z 20014G19KT 10SM SKC 17/13 A3015
KTZR 201225Z 20016G26KT 10SM SKC 17/13 A3014
KTZR 201155Z AUTO 20014G20KT 10SM CLR 16/13 A3014 RMK AO2 T01610128 10167 20160
KTZR 201135Z AUTO 20014KT 10SM SCT095 16/13 A3015 RMK AO2 T01610129
KTZR 201115Z AUTO 20011G18KT 10SM BKN095 16/13 A3014 RMK AO2 T01630130
KTZR 201055Z AUTO 20010G16KT 10SM OVC095 17/13 A3014 RMK AO2 T01650130
KTZR 201035Z AUTO 21012KT 10SM OVC095 17/13 A3013 RMK AO2 T01660130
KTZR 201015Z AUTO 20013G17KT 10SM OVC095 17/13 A3013 RMK AO2 T01650130
KTZR 200955Z AUTO 20012G17KT 10SM OVC095 17/13 A3013 RMK AO2 T01650130
KTZR 200935Z AUTO 20011G17KT 10SM OVC095 17/13 A3013 RMK AO2 T01650130
KTZR 200915Z AUTO 20011G17KT 10SM OVC095 17/13 A3013 RMK AO2 T01650128
KTZR 200855Z AUTO 21013G17KT 10SM OVC095 16/13 A3013 RMK AO2 T01630127
KTZR 200835Z AUTO 20011G17KT 10SM OVC095 16/13 A3012 RMK AO2 T01630127
KTZR 200815Z AUTO 21012G17KT 10SM OVC095 17/13 A3012 RMK AO2 T01650127
KTZR 200755Z AUTO 20011G18KT 10SM OVC095 16/13 A3012 RMK AO2 T01640126
KTZR 200735Z AUTO 20015G19KT 10SM SCT095 16/13 A3012 RMK AO2 T01640126
KTZR 200715Z AUTO 20014G20KT 10SM CLR 17/13 A3011 RMK AO2 T01650125
KTZR 200655Z AUTO 20015G21KT 10SM CLR 16/12 A3010 RMK AO2 T01640124
KTZR 200635Z AUTO 20014G21KT 10SM CLR 16/12 A3010 RMK AO2 T01640123
KTZR 200615Z AUTO 20012G19KT 10SM CLR 16/12 A3010 RMK AO2 T01610122
KTZR 200555Z AUTO 20010KT 10SM CLR 16/12 A3010 RMK AO2 T01610120 10190 20161 402060010
KTZR 200535Z AUTO 20010G18KT 10SM CLR 17/12 A3010 RMK AO2 T01650120
KTZR 200515Z AUTO 20013G18KT 10SM CLR 17/12 A3011 RMK AO2 T01650120
KTZR 200455Z AUTO 20013G18KT 10SM CLR 17/12 A3010 RMK AO2 T01650120
KTZR 200435Z AUTO 19012G17KT 10SM CLR 17/12 A3010 RMK AO2 T01670122
KTZR 200415Z AUTO 19012G16KT 10SM CLR 17/13 A3010 RMK AO2 T01660125
KTZR 200355Z AUTO 20010KT 10SM CLR 17/13 A3010 RMK AO2 T01680126
KTZR 200335Z AUTO 20010G16KT 10SM CLR 17/13 A3010 RMK AO2 T01700128
KTZR 200315Z AUTO 19012G17KT 10SM CLR 17/13 A3009 RMK AO2 T01730130
KTZR 200255Z AUTO 20011KT 10SM CLR 17/13 A3009 RMK AO2 LTG DSNT W T01740130
KTZR 200235Z AUTO 20011G18KT 10SM CLR 18/13 A3009 RMK AO2 T01750131
KTZR 200215Z AUTO 20012G16KT 10SM CLR 18/13 A3010 RMK AO2 T01770132
KTZR 200200Z AUTO 20010G15KT 10SM CLR 18/13 A3009 RMK AO2 T01770133
KTZR 200135Z AUTO 20012G16KT 10SM CLR 18/14 A3009 RMK AO2 T01820135
KTZR 200115Z AUTO 20012KT 10SM CLR 19/13 A3009 RMK AO2 T01850133
KTZR 192347Z 20012KT 10SM SCT050 SCT060 19/14 A3008
KTZR 192247Z 21012G17KT 10SM SCT050 20/15 A3006
KTZR 192150Z 20014G19KT 10SM SCT046 SCT050 21/15 A3005
KTZR 192112Z 20010G15KT 10SM BKN038 BKN045 OVC060 19/16 A3005
KTZR 192047Z 19006KT 10SM BKN050 BKN075 19/16 A3005
KTZR 191947Z COR 20009G14KT 10SM SCT044 SCT060 BKN070 18/15 A3005 RMK RAB01E14
KTZR 191918Z 20009KT 10SM SCT027 BKN034 OVC060 18/15 A3006 RMK RAB01E14
KTZR 191856Z 21010KT 10SM OVC027 17/14 A3007
KTZR 191847Z 22010G17KT 10SM BKN030 OVC037 17/14 A3007
KTZR 191745Z 20013G18KT 10SM SCT019 SCT085 17/14 A3007